Time;durP1;ratioP1;P1;durP2;ratioP2;P2;SDS_P1;SDS_P2;PMS_P1;PMS_P2;Temp;Humidity;BMP_temperature;BMP_pressure;BME280_temperature;BME280_humidity;BME280_pressure;Samples;Min_cycle;Max_cycle;Signal;HPM_P1;HPM_P2
2023/12/31 00:01:52;;;;;;;;;;;18.10;60.60;;;;;;5018989;28;43148;-81
2023/12/31 00:04:17;;;;;;;;;;;18.10;60.60;;;;;;5005669;28;43054;-81
2023/12/31 00:06:43;;;;;;;;;;;18.30;60.50;;;;;;5004790;28;42807;-83
2023/12/31 00:09:08;;;;;;;;;;;18.10;60.60;;;;;;5004421;28;43028;-82
2023/12/31 00:11:34;;;;;;;;;;;18.10;60.80;;;;;;5005518;28;42861;-82
2023/12/31 00:13:59;;;;;;;;;;;18.20;59.70;;;;;;5004446;28;42932;-82
2023/12/31 00:16:25;;;;;;;;;;;17.90;60.60;;;;;;5017560;28;42940;-83
2023/12/31 00:18:50;;;;;;;;;;;17.80;60.50;;;;;;5006872;28;43609;-83
2023/12/31 00:21:16;;;;;;;;;;;18.00;60.60;;;;;;5026642;28;43286;-83
2023/12/31 00:23:42;;;;;;;;;;;18.00;60.80;;;;;;5027918;28;43796;-83
2023/12/31 00:26:08;;;;;;;;;;;18.00;60.60;;;;;;5025947;28;43085;-82
2023/12/31 00:28:33;;;;;;;;;;;18.10;60.80;;;;;;5027281;28;43420;-82
2023/12/31 00:30:59;;;;;;;;;;;18.00;60.70;;;;;;5027524;28;42887;-83
2023/12/31 00:33:24;;;;;;;;;;;18.00;61.40;;;;;;5013402;28;43720;-83
2023/12/31 00:35:50;;;;;;;;;;;18.00;60.60;;;;;;5007061;28;42900;-83
2023/12/31 00:38:15;;;;;;;;;;;18.10;60.80;;;;;;5007323;28;43720;-84
2023/12/31 00:40:41;;;;;;;;;;;18.10;60.70;;;;;;5007613;28;42923;-83
2023/12/31 00:43:06;;;;;;;;;;;18.00;60.70;;;;;;5007241;28;43529;-84
2023/12/31 00:45:32;;;;;;;;;;;18.10;60.70;;;;;;5006307;28;42949;-83
2023/12/31 00:47:57;;;;;;;;;;;18.10;60.80;;;;;;5007168;28;42833;-83
2023/12/31 00:50:23;;;;;;;;;;;18.00;60.70;;;;;;5006774;28;42926;-83
2023/12/31 00:52:48;;;;;;;;;;;18.10;61.00;;;;;;5006703;28;42885;-84
2023/12/31 00:55:14;;;;;;;;;;;18.20;60.90;;;;;;5007891;28;43167;-82
2023/12/31 00:57:39;;;;;;;;;;;18.00;60.90;;;;;;5026794;28;43434;-82
2023/12/31 01:00:05;;;;;;;;;;;18.00;60.80;;;;;;5028404;28;42773;-82
2023/12/31 01:02:31;;;;;;;;;;;18.10;60.60;;;;;;5017411;28;43552;-83
2023/12/31 01:04:56;;;;;;;;;;;17.90;60.80;;;;;;5007041;28;42905;-83
2023/12/31 01:07:22;;;;;;;;;;;17.90;60.90;;;;;;5007203;28;42884;-82
2023/12/31 01:09:47;;;;;;;;;;;18.00;60.90;;;;;;5018799;28;43023;-82
2023/12/31 01:12:13;;;;;;;;;;;18.00;60.70;;;;;;5022331;28;43481;-83
2023/12/31 01:14:39;;;;;;;;;;;17.90;60.80;;;;;;5019789;28;43089;-83
2023/12/31 01:17:05;;;;;;;;;;;18.10;61.00;;;;;;5026631;28;43312;-82
2023/12/31 01:19:30;;;;;;;;;;;18.10;61.00;;;;;;5025022;28;42952;-82
2023/12/31 01:21:56;;;;;;;;;;;17.90;61.00;;;;;;5026639;28;43994;-82
2023/12/31 01:24:23;;;;;;;;;;;;;;;;;;5026605;28;43586;-82
2023/12/31 01:26:48;;;;;;;;;;;17.90;60.50;;;;;;5025875;28;43577;-82
2023/12/31 01:29:14;;;;;;;;;;;18.00;60.50;;;;;;5022892;28;42861;-81
2023/12/31 01:31:39;;;;;;;;;;;17.80;61.30;;;;;;5012006;28;43461;-81
2023/12/31 01:34:06;;;;;;;;;;;18.00;60.90;;;;;;5023055;28;42934;-81
2023/12/31 01:36:31;;;;;;;;;;;17.90;60.90;;;;;;5009256;28;43704;-82
2023/12/31 01:38:57;;;;;;;;;;;18.00;60.90;;;;;;5021897;28;42986;-82
2023/12/31 01:41:22;;;;;;;;;;;18.10;61.70;;;;;;5023774;28;43921;-81
2023/12/31 01:43:49;;;;;;;;;;;18.10;61.00;;;;;;5024728;28;43102;-81
2023/12/31 01:46:25;;;;;;;;;;;18.10;61.00;;;;;;5025433;28;43717;-82
2023/12/31 01:48:51;;;;;;;;;;;18.00;60.80;;;;;;5026158;28;43307;-82
2023/12/31 01:51:16;;;;;;;;;;;18.10;61.00;;;;;;5022339;28;44517;-82
2023/12/31 01:53:42;;;;;;;;;;;17.80;60.90;;;;;;5010499;28;43142;-82
2023/12/31 01:56:07;;;;;;;;;;;17.90;61.00;;;;;;5006387;28;42936;-82
2023/12/31 01:58:33;;;;;;;;;;;17.90;60.90;;;;;;5006848;28;43107;-82
2023/12/31 02:00:58;;;;;;;;;;;18.10;61.10;;;;;;5007476;28;42966;-83
2023/12/31 02:03:25;;;;;;;;;;;18.10;61.20;;;;;;5004667;28;43022;-82
2023/12/31 02:05:50;;;;;;;;;;;17.80;60.90;;;;;;5023314;28;42836;-83
2023/12/31 02:08:16;;;;;;;;;;;17.80;61.10;;;;;;5026352;28;43012;-82
2023/12/31 02:10:42;;;;;;;;;;;;;;;;;;5025741;28;42872;-83
2023/12/31 02:13:07;;;;;;;;;;;18.00;61.20;;;;;;5012401;28;42855;-82
2023/12/31 02:15:34;;;;;;;;;;;18.00;61.30;;;;;;5007103;28;43620;-82
2023/12/31 02:18:00;;;;;;;;;;;18.10;60.50;;;;;;5005906;28;42943;-82
2023/12/31 02:20:26;;;;;;;;;;;17.90;61.20;;;;;;5006574;28;43545;-82
2023/12/31 02:22:52;;;;;;;;;;;18.00;61.30;;;;;;5023894;28;43227;-82
2023/12/31 02:25:18;;;;;;;;;;;18.00;61.30;;;;;;5024124;28;43634;-82
2023/12/31 02:27:44;;;;;;;;;;;18.10;61.50;;;;;;5025517;28;42978;-82
2023/12/31 02:30:10;;;;;;;;;;;17.80;61.30;;;;;;5023589;28;46097;-83
2023/12/31 02:32:35;;;;;;;;;;;17.90;61.30;;;;;;5025030;28;43180;-82
2023/12/31 02:35:01;;;;;;;;;;;17.80;61.20;;;;;;5009381;28;42955;-82
2023/12/31 02:37:26;;;;;;;;;;;17.90;61.30;;;;;;5006750;28;42900;-83
2023/12/31 02:39:52;;;;;;;;;;;18.00;61.10;;;;;;5036221;28;42942;-83
2023/12/31 02:42:18;;;;;;;;;;;18.00;61.10;;;;;;5005149;28;42963;-83
2023/12/31 02:44:43;;;;;;;;;;;18.00;61.20;;;;;;5006415;28;43003;-81
2023/12/31 02:47:11;;;;;;;;;;;18.00;61.20;;;;;;5005561;28;43003;-82
2023/12/31 02:49:36;;;;;;;;;;;17.90;61.30;;;;;;5005257;28;42930;-83
2023/12/31 02:52:02;;;;;;;;;;;17.90;61.20;;;;;;5005620;28;42945;-83
2023/12/31 02:54:27;;;;;;;;;;;17.90;61.30;;;;;;5006467;28;42976;-83
2023/12/31 02:56:53;;;;;;;;;;;17.90;61.20;;;;;;5003373;28;43032;-83
2023/12/31 02:59:18;;;;;;;;;;;17.90;61.30;;;;;;5005017;28;43752;-84
2023/12/31 03:01:44;;;;;;;;;;;17.80;61.10;;;;;;5005568;28;42964;-83
2023/12/31 03:04:09;;;;;;;;;;;17.90;61.20;;;;;;5021050;28;43530;-83
2023/12/31 03:06:36;;;;;;;;;;;17.90;61.30;;;;;;5020958;28;42899;-83
2023/12/31 03:09:02;;;;;;;;;;;18.00;61.30;;;;;;5022517;28;42991;-84
2023/12/31 03:11:28;;;;;;;;;;;17.90;61.30;;;;;;5023786;28;43261;-81
2023/12/31 03:13:53;;;;;;;;;;;17.90;61.30;;;;;;5012273;28;42919;-81
2023/12/31 03:16:18;;;;;;;;;;;17.90;61.30;;;;;;5014689;28;42942;-81
2023/12/31 03:18:44;;;;;;;;;;;17.90;61.30;;;;;;5024931;28;43583;-81
2023/12/31 03:21:13;;;;;;;;;;;17.90;61.30;;;;;;5027935;28;43010;-82
2023/12/31 03:23:39;;;;;;;;;;;18.00;61.40;;;;;;5025329;28;43029;-81
2023/12/31 03:26:05;;;;;;;;;;;17.80;61.20;;;;;;5016682;28;42959;-81
2023/12/31 03:28:31;;;;;;;;;;;17.80;61.10;;;;;;5013269;28;44043;-81
2023/12/31 03:30:57;;;;;;;;;;;17.80;61.20;;;;;;5004662;28;42930;-81
2023/12/31 03:33:22;;;;;;;;;;;17.90;61.20;;;;;;5022310;28;42946;-82
2023/12/31 03:35:48;;;;;;;;;;;18.00;61.30;;;;;;5005425;28;43320;-81
2023/12/31 03:38:13;;;;;;;;;;;17.90;61.30;;;;;;5007255;28;43665;-81
2023/12/31 03:40:40;;;;;;;;;;;18.00;61.30;;;;;;5006293;28;42964;-83
2023/12/31 03:43:06;;;;;;;;;;;17.90;61.30;;;;;;5004463;28;43599;-81
2023/12/31 03:45:32;;;;;;;;;;;17.70;61.20;;;;;;5004101;28;42793;-82
2023/12/31 03:47:57;;;;;;;;;;;17.80;61.20;;;;;;5005486;28;42945;-82
2023/12/31 03:50:23;;;;;;;;;;;17.90;61.40;;;;;;5004518;28;42974;-82
2023/12/31 03:52:48;;;;;;;;;;;17.70;61.20;;;;;;5008726;28;43150;-82
2023/12/31 03:55:14;;;;;;;;;;;18.00;61.40;;;;;;5008214;28;42959;-80
2023/12/31 03:57:39;;;;;;;;;;;17.90;61.30;;;;;;5012469;28;42898;-81
2023/12/31 04:00:07;;;;;;;;;;;17.90;61.40;;;;;;5026345;28;43002;-81
2023/12/31 04:02:33;;;;;;;;;;;17.80;61.20;;;;;;5026257;28;43481;-80
2023/12/31 04:04:59;;;;;;;;;;;17.80;61.30;;;;;;5027898;28;42852;-81
2023/12/31 04:07:24;;;;;;;;;;;17.90;60.90;;;;;;5026850;28;43666;-81
2023/12/31 04:09:50;;;;;;;;;;;17.90;61.20;;;;;;5026817;28;43309;-81
2023/12/31 04:12:15;;;;;;;;;;;17.80;61.10;;;;;;5026735;28;43697;-80
2023/12/31 04:14:41;;;;;;;;;;;17.90;61.40;;;;;;5008582;28;43147;-81
2023/12/31 04:17:06;;;;;;;;;;;17.90;61.40;;;;;;5007797;28;42828;-81
2023/12/31 04:19:32;;;;;;;;;;;17.90;61.30;;;;;;5008290;28;43001;-81
2023/12/31 04:21:57;;;;;;;;;;;17.90;61.40;;;;;;5007718;28;42951;-81
2023/12/31 04:24:23;;;;;;;;;;;17.90;61.40;;;;;;5009579;28;42977;-81
2023/12/31 04:26:49;;;;;;;;;;;17.80;61.30;;;;;;5008204;28;43002;-80
2023/12/31 04:29:14;;;;;;;;;;;17.90;61.40;;;;;;5023226;28;42785;-80
2023/12/31 04:31:45;;;;;;;;;;;17.90;61.40;;;;;;5027392;28;43383;-81
2023/12/31 04:34:11;;;;;;;;;;;17.80;61.20;;;;;;5025859;28;42928;-80
2023/12/31 04:36:36;;;;;;;;;;;17.70;61.20;;;;;;5023816;28;42903;-81
2023/12/31 04:39:03;;;;;;;;;;;17.90;61.40;;;;;;5006011;28;43069;-80
2023/12/31 04:41:28;;;;;;;;;;;17.80;61.20;;;;;;5024885;28;44414;-81
2023/12/31 04:43:54;;;;;;;;;;;17.70;61.30;;;;;;5026985;28;42842;-80
2023/12/31 04:46:20;;;;;;;;;;;17.90;61.50;;;;;;5024713;28;42907;-81
2023/12/31 04:48:46;;;;;;;;;;;17.90;61.50;;;;;;5026785;28;43003;-81
2023/12/31 04:51:22;;;;;;;;;;;17.60;61.20;;;;;;5025729;28;43370;-81
2023/12/31 04:53:47;;;;;;;;;;;17.80;61.40;;;;;;5026275;28;42972;-80
2023/12/31 04:56:19;;;;;;;;;;;17.70;61.30;;;;;;5023202;28;43011;-80
2023/12/31 04:58:46;;;;;;;;;;;17.70;61.40;;;;;;5026346;28;42897;-80
2023/12/31 05:01:11;;;;;;;;;;;17.80;61.30;;;;;;5025677;28;42970;-80
2023/12/31 05:03:37;;;;;;;;;;;17.90;61.50;;;;;;5025178;28;43068;-80
2023/12/31 05:06:02;;;;;;;;;;;17.90;61.40;;;;;;5017476;28;43969;-83
2023/12/31 05:08:28;;;;;;;;;;;17.90;61.40;;;;;;5007812;28;43234;-85
2023/12/31 05:10:54;;;;;;;;;;;17.80;61.50;;;;;;5024682;28;43835;-82
2023/12/31 05:13:20;;;;;;;;;;;17.90;61.50;;;;;;5022549;28;42947;-84
2023/12/31 05:15:45;;;;;;;;;;;18.00;61.50;;;;;;5021765;28;43089;-84
2023/12/31 05:18:11;;;;;;;;;;;17.80;61.30;;;;;;5016277;28;42865;-83
2023/12/31 05:20:36;;;;;;;;;;;17.80;61.30;;;;;;5011805;28;42878;-84
2023/12/31 05:23:02;;;;;;;;;;;17.80;61.30;;;;;;5024294;28;42994;-82
2023/12/31 05:25:27;;;;;;;;;;;17.80;61.20;;;;;;5025524;28;43772;-82
2023/12/31 05:27:53;;;;;;;;;;;17.90;61.30;;;;;;5021054;28;42977;-82
2023/12/31 05:30:18;;;;;;;;;;;17.70;61.10;;;;;;5006870;28;42904;-81
2023/12/31 05:32:43;;;;;;;;;;;17.90;61.50;;;;;;5018307;28;42824;-81
2023/12/31 05:35:09;;;;;;;;;;;17.70;61.30;;;;;;5015891;28;43468;-82
2023/12/31 05:37:35;;;;;;;;;;;17.70;61.20;;;;;;5010287;28;42931;-82
2023/12/31 05:40:00;;;;;;;;;;;17.70;61.30;;;;;;5029172;28;43810;-83
2023/12/31 05:42:27;;;;;;;;;;;17.80;61.30;;;;;;5027491;28;43025;-83
2023/12/31 05:44:53;;;;;;;;;;;17.80;61.30;;;;;;5024104;28;44397;-84
2023/12/31 05:47:18;;;;;;;;;;;17.80;61.30;;;;;;5019172;28;43113;-84
2023/12/31 05:49:44;;;;;;;;;;;17.80;61.40;;;;;;5025027;28;43640;-82
2023/12/31 05:52:09;;;;;;;;;;;17.80;61.40;;;;;;5024132;28;43014;-81
2023/12/31 05:54:39;;;;;;;;;;;17.80;61.40;;;;;;5025158;28;43026;-80
2023/12/31 05:57:04;;;;;;;;;;;17.80;61.30;;;;;;5025305;28;43407;-80
2023/12/31 05:59:31;;;;;;;;;;;17.60;61.30;;;;;;5023440;28;42966;-80
2023/12/31 06:01:56;;;;;;;;;;;17.80;61.40;;;;;;5023236;28;42967;-80
2023/12/31 06:04:22;;;;;;;;;;;17.60;61.30;;;;;;5025989;28;42938;-80
2023/12/31 06:06:47;;;;;;;;;;;17.70;61.50;;;;;;5024633;28;43044;-80
2023/12/31 06:09:13;;;;;;;;;;;17.70;61.30;;;;;;5024605;28;43339;-81
2023/12/31 06:11:38;;;;;;;;;;;17.80;61.30;;;;;;5014527;28;42768;-81
2023/12/31 06:14:04;;;;;;;;;;;17.80;61.40;;;;;;5023005;28;43254;-80
2023/12/31 06:16:29;;;;;;;;;;;17.70;61.50;;;;;;5023166;28;43103;-81
2023/12/31 06:18:55;;;;;;;;;;;17.70;61.40;;;;;;5018609;28;44163;-82
2023/12/31 06:21:20;;;;;;;;;;;17.90;61.30;;;;;;5025013;28;43001;-81
2023/12/31 06:23:46;;;;;;;;;;;17.60;61.20;;;;;;5022965;28;43717;-80
2023/12/31 06:26:11;;;;;;;;;;;17.80;61.30;;;;;;5006095;28;43023;-81
2023/12/31 06:28:37;;;;;;;;;;;17.80;61.00;;;;;;5006487;28;43722;-81
2023/12/31 06:31:02;;;;;;;;;;;17.80;61.30;;;;;;5005885;28;43015;-82
2023/12/31 06:33:28;;;;;;;;;;;17.80;61.30;;;;;;5014857;28;43430;-81
2023/12/31 06:35:53;;;;;;;;;;;17.70;61.20;;;;;;5024056;28;42765;-81
2023/12/31 06:38:19;;;;;;;;;;;17.80;61.30;;;;;;5013401;28;43571;-82
2023/12/31 06:40:44;;;;;;;;;;;17.90;61.20;;;;;;5006158;28;42983;-82
2023/12/31 06:43:11;;;;;;;;;;;17.80;61.10;;;;;;5021040;28;43017;-82
2023/12/31 06:45:36;;;;;;;;;;;17.90;61.30;;;;;;5019661;28;43092;-83
2023/12/31 06:48:02;;;;;;;;;;;17.80;61.00;;;;;;5016783;28;44027;-81
2023/12/31 06:50:27;;;;;;;;;;;17.70;61.10;;;;;;5024303;28;43000;-84
2023/12/31 06:52:53;;;;;;;;;;;17.90;61.00;;;;;;5024668;28;43550;-82
2023/12/31 06:55:19;;;;;;;;;;;17.90;61.20;;;;;;5023429;28;44128;-82
2023/12/31 06:57:44;;;;;;;;;;;17.80;61.10;;;;;;5024603;28;42981;-82
2023/12/31 07:00:10;;;;;;;;;;;17.70;61.10;;;;;;5023352;28;42933;-81
2023/12/31 07:02:37;;;;;;;;;;;17.80;61.10;;;;;;5024291;28;42941;-83
2023/12/31 07:05:03;;;;;;;;;;;17.90;61.10;;;;;;5022872;28;42877;-82
2023/12/31 07:07:29;;;;;;;;;;;17.70;60.50;;;;;;5022623;28;44020;-82
2023/12/31 07:09:54;;;;;;;;;;;17.70;61.10;;;;;;5024458;28;42861;-83
2023/12/31 07:12:22;;;;;;;;;;;17.80;61.30;;;;;;5022015;28;64900;-82
2023/12/31 07:14:47;;;;;;;;;;;17.70;61.20;;;;;;5024246;28;42975;-82
2023/12/31 07:17:13;;;;;;;;;;;17.80;61.30;;;;;;5012966;28;42944;-82
2023/12/31 07:19:38;;;;;;;;;;;17.60;61.20;;;;;;5020342;28;43075;-82
2023/12/31 07:22:04;;;;;;;;;;;17.70;61.10;;;;;;5023452;28;44690;-81
2023/12/31 07:24:32;;;;;;;;;;;17.70;61.10;;;;;;5024515;28;42981;-81
2023/12/31 07:26:58;;;;;;;;;;;17.80;61.00;;;;;;5019717;28;43418;-83
2023/12/31 07:29:24;;;;;;;;;;;17.60;61.10;;;;;;5006967;28;42797;-82
2023/12/31 07:31:49;;;;;;;;;;;17.90;61.00;;;;;;5016483;28;44495;-81
2023/12/31 07:34:15;;;;;;;;;;;17.70;61.00;;;;;;5010503;28;43262;-81
2023/12/31 07:36:41;;;;;;;;;;;17.80;60.60;;;;;;5021175;28;42975;-83
2023/12/31 07:39:06;;;;;;;;;;;17.70;61.00;;;;;;5010258;28;43177;-83
2023/12/31 07:41:32;;;;;;;;;;;17.70;61.00;;;;;;5010418;28;42962;-83
2023/12/31 07:43:58;;;;;;;;;;;17.60;61.00;;;;;;5004712;28;42987;-82
2023/12/31 07:46:23;;;;;;;;;;;17.70;61.30;;;;;;5004475;28;43412;-81
2023/12/31 07:48:51;;;;;;;;;;;17.80;61.40;;;;;;5016419;28;42918;-81
2023/12/31 07:51:17;;;;;;;;;;;17.60;61.20;;;;;;5010822;28;43019;-81
2023/12/31 07:53:42;;;;;;;;;;;17.60;61.30;;;;;;5016723;28;42986;-81
2023/12/31 07:56:08;;;;;;;;;;;17.70;61.10;;;;;;5005154;28;42889;-81
2023/12/31 07:58:34;;;;;;;;;;;17.70;61.20;;;;;;5008762;28;42790;-81
2023/12/31 08:01:02;;;;;;;;;;;17.70;61.30;;;;;;5011546;28;43244;-81
2023/12/31 08:03:30;;;;;;;;;;;17.70;61.30;;;;;;5020811;28;44796;-82
2023/12/31 08:05:57;;;;;;;;;;;18.00;62.10;;;;;;5018672;28;43230;-81
2023/12/31 08:08:22;;;;;;;;;;;17.80;61.20;;;;;;5020299;28;43144;-83
2023/12/31 08:10:48;;;;;;;;;;;17.80;61.90;;;;;;5013758;28;43367;-82
2023/12/31 08:13:13;;;;;;;;;;;17.70;60.90;;;;;;5003997;28;42894;-84
2023/12/31 08:15:39;;;;;;;;;;;17.60;60.80;;;;;;5004395;28;43040;-83
2023/12/31 08:18:05;;;;;;;;;;;17.60;60.50;;;;;;5004402;28;43112;-83
2023/12/31 08:20:30;;;;;;;;;;;17.60;60.40;;;;;;5015938;28;42956;-82
2023/12/31 08:22:56;;;;;;;;;;;17.70;60.00;;;;;;5004720;28;43067;-83
2023/12/31 08:25:22;;;;;;;;;;;17.70;60.10;;;;;;5019532;28;43505;-82
2023/12/31 08:27:47;;;;;;;;;;;17.70;60.90;;;;;;5008043;28;44191;-83
2023/12/31 08:30:13;;;;;;;;;;;17.70;60.00;;;;;;5020533;28;43970;-83
2023/12/31 08:32:39;;;;;;;;;;;17.60;60.60;;;;;;5006264;28;42926;-82
2023/12/31 08:35:05;;;;;;;;;;;17.70;59.80;;;;;;5016301;28;43495;-83
2023/12/31 08:37:30;;;;;;;;;;;17.70;60.20;;;;;;5011352;28;43054;-84
2023/12/31 08:39:56;;;;;;;;;;;17.60;60.20;;;;;;5017843;28;43452;-83
2023/12/31 08:42:21;;;;;;;;;;;17.60;60.50;;;;;;5016164;28;43023;-82
2023/12/31 08:44:47;;;;;;;;;;;17.70;59.80;;;;;;5022635;28;42821;-82
2023/12/31 08:47:12;;;;;;;;;;;17.90;60.30;;;;;;5017281;28;42836;-82
2023/12/31 08:49:38;;;;;;;;;;;17.50;59.90;;;;;;5024574;28;42911;-82
2023/12/31 08:52:04;;;;;;;;;;;17.50;59.70;;;;;;5024064;28;43129;-82
2023/12/31 08:54:29;;;;;;;;;;;17.80;60.20;;;;;;5015089;28;44051;-81
2023/12/31 08:56:55;;;;;;;;;;;17.70;60.60;;;;;;5015120;28;43079;-82
2023/12/31 08:59:20;;;;;;;;;;;17.60;59.80;;;;;;5018608;28;42939;-82
2023/12/31 09:01:46;;;;;;;;;;;17.70;60.20;;;;;;5017041;28;43040;-83
2023/12/31 09:04:12;;;;;;;;;;;17.60;59.80;;;;;;5023176;28;43394;-83
2023/12/31 09:06:37;;;;;;;;;;;17.60;60.80;;;;;;5017064;28;43040;-82
2023/12/31 09:09:04;;;;;;;;;;;17.70;60.00;;;;;;5016841;28;43645;-79
2023/12/31 09:11:30;;;;;;;;;;;17.60;60.00;;;;;;5014675;28;43146;-79
2023/12/31 09:13:56;;;;;;;;;;;17.60;59.70;;;;;;5014677;28;44326;-79
2023/12/31 09:16:21;;;;;;;;;;;17.70;59.90;;;;;;5012299;28;42993;-79
2023/12/31 09:18:47;;;;;;;;;;;17.70;60.00;;;;;;5018160;28;43524;-81
2023/12/31 09:21:13;;;;;;;;;;;17.70;60.00;;;;;;5024326;28;43116;-79
2023/12/31 09:23:38;;;;;;;;;;;17.70;60.90;;;;;;5017939;28;43993;-78
2023/12/31 09:26:04;;;;;;;;;;;17.60;60.80;;;;;;5019505;28;43170;-80
2023/12/31 09:28:29;;;;;;;;;;;17.70;60.00;;;;;;5024517;28;43044;-80
2023/12/31 09:30:55;;;;;;;;;;;17.70;60.30;;;;;;5022127;28;42907;-80
2023/12/31 09:33:20;;;;;;;;;;;17.50;60.40;;;;;;5011736;28;43727;-82
2023/12/31 09:35:46;;;;;;;;;;;17.60;60.40;;;;;;5012350;28;42995;-83
2023/12/31 09:38:11;;;;;;;;;;;17.60;59.90;;;;;;5014309;28;43039;-82
2023/12/31 09:40:37;;;;;;;;;;;17.60;61.40;;;;;;5015806;28;43146;-82
2023/12/31 09:43:03;;;;;;;;;;;17.70;61.30;;;;;;5015389;28;43752;-81
2023/12/31 09:45:30;;;;;;;;;;;17.50;61.60;;;;;;5016787;28;42887;-82
2023/12/31 09:47:57;;;;;;;;;;;17.60;60.10;;;;;;5024428;28;43563;-81
2023/12/31 09:50:23;;;;;;;;;;;17.60;60.50;;;;;;5008956;28;43141;-81
2023/12/31 09:52:49;;;;;;;;;;;17.70;57.40;;;;;;5012362;28;43414;-80
2023/12/31 09:55:18;;;;;;;;;;;17.60;57.40;;;;;;5019907;28;42991;-79
2023/12/31 09:57:45;;;;;;;;;;;17.60;59.50;;;;;;5014274;28;42972;-79
2023/12/31 10:00:11;;;;;;;;;;;17.60;59.50;;;;;;5009620;28;44237;-79
2023/12/31 10:02:37;;;;;;;;;;;17.80;60.30;;;;;;5014213;28;42916;-80
2023/12/31 10:05:04;;;;;;;;;;;17.70;60.80;;;;;;5014142;28;43133;-80
2023/12/31 10:07:29;;;;;;;;;;;17.50;60.80;;;;;;5011661;28;43559;-80
2023/12/31 10:09:56;;;;;;;;;;;17.60;60.50;;;;;;5023993;28;43022;-79
2023/12/31 10:12:22;;;;;;;;;;;17.60;60.70;;;;;;5025292;28;43538;-79
2023/12/31 10:14:48;;;;;;;;;;;17.40;60.90;;;;;;5020206;28;42943;-80
2023/12/31 10:17:13;;;;;;;;;;;17.80;61.00;;;;;;5028878;28;42962;-80
2023/12/31 10:19:40;;;;;;;;;;;17.80;61.30;;;;;;5025021;28;42971;-80
2023/12/31 10:22:06;;;;;;;;;;;17.70;60.20;;;;;;5014680;28;42994;-80
2023/12/31 10:24:31;;;;;;;;;;;17.60;59.90;;;;;;5015694;28;43001;-80
2023/12/31 10:27:00;;;;;;;;;;;17.40;60.70;;;;;;5012993;28;45439;-80
2023/12/31 10:29:26;;;;;;;;;;;17.50;60.70;;;;;;5014174;28;43093;-82
2023/12/31 10:31:53;;;;;;;;;;;17.70;61.10;;;;;;5013805;28;43865;-84
2023/12/31 10:34:18;;;;;;;;;;;17.80;60.70;;;;;;5010256;28;43053;-81
2023/12/31 10:36:45;;;;;;;;;;;17.70;61.00;;;;;;5014214;28;42959;-81
2023/12/31 10:39:24;;;;;;;;;;;17.70;61.80;;;;;;5014128;28;43309;-81
2023/12/31 10:41:50;;;;;;;;;;;17.70;61.60;;;;;;5017082;28;43002;-79
2023/12/31 10:44:16;;;;;;;;;;;17.80;61.40;;;;;;5013628;28;43971;-79
2023/12/31 10:46:42;;;;;;;;;;;17.60;60.80;;;;;;5012398;28;43038;-79
2023/12/31 10:49:10;;;;;;;;;;;17.60;61.90;;;;;;5015136;28;43044;-79
2023/12/31 10:51:38;;;;;;;;;;;17.70;62.20;;;;;;5020454;28;43432;-79
2023/12/31 10:54:05;;;;;;;;;;;17.70;62.30;;;;;;5018602;28;43079;-79
2023/12/31 10:56:31;;;;;;;;;;;17.60;62.20;;;;;;5004273;28;44196;-79
2023/12/31 10:58:58;;;;;;;;;;;17.60;62.10;;;;;;5008223;28;43023;-79
2023/12/31 11:01:26;;;;;;;;;;;17.50;61.70;;;;;;5015582;28;43792;-79
2023/12/31 11:03:53;;;;;;;;;;;17.60;61.10;;;;;;5014817;28;43006;-79
2023/12/31 11:06:18;;;;;;;;;;;17.50;56.20;;;;;;5012356;28;43029;-80
2023/12/31 11:08:45;;;;;;;;;;;17.50;55.30;;;;;;5012950;28;43161;-79
2023/12/31 11:11:11;;;;;;;;;;;17.40;53.60;;;;;;5014041;28;42883;-79
2023/12/31 11:13:41;;;;;;;;;;;17.40;54.20;;;;;;5023007;28;42944;-80
2023/12/31 11:16:09;;;;;;;;;;;17.20;53.00;;;;;;5021318;28;43038;-80
2023/12/31 11:18:49;;;;;;;;;;;17.30;53.90;;;;;;5024314;28;43062;-79
2023/12/31 11:21:27;;;;;;;;;;;17.10;53.80;;;;;;5018928;28;44923;-79
2023/12/31 11:24:00;;;;;;;;;;;17.10;53.70;;;;;;5021374;28;43134;-80
2023/12/31 11:26:25;;;;;;;;;;;16.90;53.60;;;;;;5017938;28;45032;-81
2023/12/31 11:28:53;;;;;;;;;;;17.00;55.50;;;;;;5014257;28;44005;-81
2023/12/31 11:31:21;;;;;;;;;;;17.00;55.90;;;;;;5021718;28;44047;-79
2023/12/31 11:33:47;;;;;;;;;;;;;;;;;;5016010;28;42863;-78
2023/12/31 11:36:13;;;;;;;;;;;17.00;58.40;;;;;;5018649;28;44841;-78
2023/12/31 11:38:58;;;;;;;;;;;17.20;58.60;;;;;;5008721;28;43914;-79
2023/12/31 11:41:31;;;;;;;;;;;17.30;58.70;;;;;;5013740;28;43003;-79
2023/12/31 11:43:57;;;;;;;;;;;17.40;56.60;;;;;;5007445;28;43050;-85
2023/12/31 11:46:39;;;;;;;;;;;17.30;58.20;;;;;;5010960;28;43014;-85
2023/12/31 11:49:05;;;;;;;;;;;17.40;59.80;;;;;;5007983;28;43056;-82
2023/12/31 11:51:50;;;;;;;;;;;17.40;60.10;;;;;;5012793;28;43646;-79
2023/12/31 11:54:17;;;;;;;;;;;17.40;61.70;;;;;;5011421;28;43202;-78
2023/12/31 11:56:47;;;;;;;;;;;17.40;62.10;;;;;;5013804;28;43732;-79
2023/12/31 11:59:14;;;;;;;;;;;17.60;62.90;;;;;;5012148;28;43207;-81
2023/12/31 12:01:40;;;;;;;;;;;17.50;62.90;;;;;;5006040;28;43585;-80
2023/12/31 12:04:06;;;;;;;;;;;17.40;62.40;;;;;;5014365;28;42825;-80
2023/12/31 12:06:32;;;;;;;;;;;17.70;61.60;;;;;;5016585;28;43134;-80
2023/12/31 12:08:57;;;;;;;;;;;17.50;60.70;;;;;;5006415;28;43179;-80
2023/12/31 12:11:23;;;;;;;;;;;17.50;59.60;;;;;;5007370;28;43010;-80
2023/12/31 12:13:50;;;;;;;;;;;17.50;59.30;;;;;;5011504;28;43115;-80
2023/12/31 12:16:15;;;;;;;;;;;17.60;59.40;;;;;;5004756;28;45929;-80
2023/12/31 12:18:46;;;;;;;;;;;17.60;60.90;;;;;;5010272;28;43267;-81
2023/12/31 12:21:12;;;;;;;;;;;17.50;61.20;;;;;;4994898;28;43812;-79
2023/12/31 12:23:37;;;;;;;;;;;17.50;61.40;;;;;;4999314;28;43063;-81
2023/12/31 12:26:03;;;;;;;;;;;17.50;61.80;;;;;;4995060;28;43268;-79
2023/12/31 12:28:30;;;;;;;;;;;17.50;61.70;;;;;;4989446;28;44648;-88
2023/12/31 12:30:56;;;;;;;;;;;17.60;61.90;;;;;;5002852;28;43957;-80
2023/12/31 12:33:22;;;;;;;;;;;;;;;;;;4998012;28;42975;-79
2023/12/31 12:35:48;;;;;;;;;;;17.50;60.30;;;;;;4996845;28;43813;-80
2023/12/31 12:38:14;;;;;;;;;;;17.60;60.20;;;;;;5005034;28;42999;-87
2023/12/31 12:40:41;;;;;;;;;;;17.30;56.80;;;;;;4998870;28;43479;-80
2023/12/31 12:43:06;;;;;;;;;;;17.50;60.60;;;;;;5000126;28;42947;-80
2023/12/31 12:45:32;;;;;;;;;;;17.70;61.60;;;;;;4994067;28;42988;-81
2023/12/31 12:47:59;;;;;;;;;;;17.50;61.70;;;;;;4993656;28;43194;-80
2023/12/31 12:50:26;;;;;;;;;;;17.60;61.40;;;;;;4993454;28;43773;-79
2023/12/31 12:52:53;;;;;;;;;;;17.30;61.50;;;;;;4995060;28;43339;-81
2023/12/31 12:55:18;;;;;;;;;;;17.50;61.80;;;;;;4989742;28;43455;-79
2023/12/31 12:57:44;;;;;;;;;;;17.40;62.00;;;;;;4999480;28;43096;-78
2023/12/31 13:00:10;;;;;;;;;;;17.60;62.10;;;;;;4990986;28;42742;-79
2023/12/31 13:02:35;;;;;;;;;;;17.40;61.80;;;;;;5004876;28;43196;-78
2023/12/31 13:05:01;;;;;;;;;;;17.60;61.90;;;;;;5003204;28;42876;-78
2023/12/31 13:07:26;;;;;;;;;;;17.60;61.90;;;;;;4996829;28;43668;-77
2023/12/31 13:09:52;;;;;;;;;;;17.60;61.90;;;;;;5006355;28;42948;-79
2023/12/31 13:12:17;;;;;;;;;;;17.70;61.90;;;;;;5002550;28;43305;-78
2023/12/31 13:14:44;;;;;;;;;;;17.60;60.40;;;;;;4988688;28;43321;-78
2023/12/31 13:17:10;;;;;;;;;;;17.60;58.90;;;;;;5000571;28;42947;-78
2023/12/31 13:19:35;;;;;;;;;;;17.70;59.60;;;;;;4987277;28;42972;-78
2023/12/31 13:22:01;;;;;;;;;;;17.70;59.00;;;;;;5001917;28;43722;-79
2023/12/31 13:24:26;;;;;;;;;;;17.70;61.40;;;;;;5003483;28;42901;-78
2023/12/31 13:26:52;;;;;;;;;;;17.50;61.30;;;;;;5006745;28;43147;-78
2023/12/31 13:29:18;;;;;;;;;;;17.60;61.60;;;;;;5000660;28;43689;-78
2023/12/31 13:31:44;;;;;;;;;;;17.60;61.60;;;;;;4991040;28;43340;-78
2023/12/31 13:34:09;;;;;;;;;;;17.70;62.00;;;;;;4999785;28;43976;-79
2023/12/31 13:36:35;;;;;;;;;;;17.70;61.20;;;;;;4987052;28;43032;-78
2023/12/31 13:39:01;;;;;;;;;;;17.70;61.50;;;;;;4996531;28;43332;-78
2023/12/31 13:41:27;;;;;;;;;;;17.70;61.40;;;;;;4994311;28;43207;-78
2023/12/31 13:43:53;;;;;;;;;;;17.80;61.40;;;;;;5004290;28;42962;-78
2023/12/31 13:46:19;;;;;;;;;;;17.90;61.50;;;;;;4994591;28;42894;-79
2023/12/31 13:48:44;;;;;;;;;;;17.80;61.30;;;;;;4996601;28;42949;-78
2023/12/31 13:51:10;;;;;;;;;;;17.70;60.70;;;;;;4996518;28;43011;-83
2023/12/31 13:53:35;;;;;;;;;;;17.70;62.20;;;;;;4995839;28;43709;-93
2023/12/31 13:56:01;;;;;;;;;;;17.70;61.90;;;;;;4995470;28;43166;-84
2023/12/31 13:58:27;;;;;;;;;;;17.70;61.80;;;;;;4996513;28;43201;-87
2023/12/31 14:00:52;;;;;;;;;;;17.70;61.80;;;;;;4994598;28;43047;-83
2023/12/31 14:03:18;;;;;;;;;;;17.80;63.30;;;;;;4994261;28;43184;-85
2023/12/31 14:05:44;;;;;;;;;;;17.80;62.30;;;;;;5010755;28;43314;-86
2023/12/31 14:08:10;;;;;;;;;;;17.80;62.30;;;;;;4996642;28;43647;-86
2023/12/31 14:10:41;;;;;;;;;;;18.00;63.00;;;;;;4996064;28;43084;-91
2023/12/31 14:13:07;;;;;;;;;;;18.10;63.50;;;;;;4999643;28;45431;-88